createdAt,value
2018-06-11T00:01:21.364Z,99.90
2018-06-11T00:03:49.134Z,99.90
2018-06-11T00:06:16.911Z,99.90
2018-06-11T00:08:44.740Z,99.90
2018-06-11T00:11:12.536Z,99.90
2018-06-11T00:13:40.367Z,99.90
2018-06-11T00:16:08.173Z,99.90
2018-06-11T00:21:03.617Z,99.90
2018-06-11T00:25:58.996Z,99.90
2018-06-11T00:28:26.725Z,99.90
2018-06-11T00:30:54.541Z,99.90
2018-06-11T00:33:22.405Z,99.90
2018-06-11T00:35:50.211Z,99.90
2018-06-11T00:38:17.994Z,99.90
2018-06-11T00:40:45.740Z,99.90
2018-06-11T00:45:41.156Z,99.90
2018-06-11T00:53:04.313Z,99.90
2018-06-11T00:55:43.341Z,99.90
2018-06-11T00:58:11.200Z,99.90
2018-06-11T01:00:38.977Z,99.90
2018-06-11T01:03:06.777Z,99.90
2018-06-11T01:08:02.196Z,99.90
2018-06-11T01:15:25.312Z,99.90
2018-06-11T01:17:53.057Z,99.90
2018-06-11T01:22:48.451Z,99.90
2018-06-11T01:25:16.239Z,99.90
2018-06-11T01:27:43.991Z,99.90
2018-06-11T01:30:11.769Z,99.90
2018-06-11T01:37:34.824Z,99.90
2018-06-11T01:40:02.616Z,99.90
2018-06-11T01:42:30.374Z,99.90
2018-06-11T01:44:58.152Z,99.90
2018-06-11T01:47:25.952Z,99.90
2018-06-11T01:49:53.744Z,99.90
2018-06-11T01:52:21.513Z,99.90
2018-06-11T01:54:49.286Z,99.90
2018-06-11T01:57:17.068Z,99.90
2018-06-11T01:59:44.827Z,99.90
2018-06-11T02:02:12.607Z,99.90
2018-06-11T02:07:08.012Z,99.90
2018-06-11T02:09:35.808Z,99.90
2018-06-11T02:12:03.565Z,99.90
2018-06-11T02:14:31.291Z,99.90
2018-06-11T02:16:59.040Z,99.90
2018-06-11T02:19:26.743Z,99.90
2018-06-11T02:21:54.521Z,99.90
2018-06-11T02:24:22.300Z,99.90
2018-06-11T02:26:50.060Z,99.90
2018-06-11T02:29:17.819Z,99.90
2018-06-11T02:31:45.612Z,99.90
2018-06-11T02:34:13.401Z,99.90
2018-06-11T02:36:41.160Z,99.90
2018-06-11T02:39:09.240Z,99.90
2018-06-11T02:41:36.980Z,99.90
2018-06-11T02:44:04.760Z,99.90
2018-06-11T02:46:32.553Z,99.90
2018-06-11T02:49:00.316Z,99.90
2018-06-11T02:51:28.084Z,99.90
2018-06-11T02:53:55.849Z,99.90
2018-06-11T02:56:23.604Z,99.90
2018-06-11T02:58:51.360Z,99.90
2018-06-11T03:01:19.196Z,99.90
2018-06-11T03:03:46.988Z,99.90
2018-06-11T03:06:14.739Z,99.90
2018-06-11T03:08:42.548Z,99.90
2018-06-11T03:11:10.298Z,99.90
2018-06-11T03:13:38.063Z,99.90
2018-06-11T03:16:05.884Z,99.90
2018-06-11T03:18:33.635Z,99.90
2018-06-11T03:21:01.443Z,99.90
2018-06-11T03:23:29.216Z,99.90
2018-06-11T03:25:57.061Z,99.90
2018-06-11T03:28:24.831Z,99.90
2018-06-11T03:30:52.684Z,99.90
2018-06-11T03:33:20.579Z,99.90
2018-06-11T03:35:48.502Z,99.90
2018-06-11T03:38:16.314Z,99.90
2018-06-11T03:40:44.200Z,99.90
2018-06-11T03:45:39.787Z,99.90
2018-06-11T03:48:07.535Z,99.90
2018-06-11T03:50:35.345Z,99.90
2018-06-11T03:53:03.140Z,99.90
2018-06-11T03:55:30.896Z,99.90
2018-06-11T03:57:58.680Z,99.90
2018-06-11T04:02:54.071Z,99.90
2018-06-11T04:05:21.874Z,99.90
2018-06-11T04:07:49.633Z,99.90
2018-06-11T04:12:45.068Z,99.90
2018-06-11T04:15:12.836Z,99.90
2018-06-11T04:20:08.245Z,99.90
2018-06-11T04:22:36.006Z,99.90
2018-06-11T04:25:05.845Z,99.90
2018-06-11T04:27:33.626Z,99.90
2018-06-11T04:30:02.529Z,99.90
2018-06-11T04:32:30.317Z,99.90
2018-06-11T04:34:58.120Z,99.90
2018-06-11T04:39:53.536Z,99.90
2018-06-11T04:42:21.310Z,99.90
2018-06-11T04:44:49.068Z,99.90
2018-06-11T04:47:16.816Z,99.90
2018-06-11T04:49:44.604Z,99.90
2018-06-11T04:52:12.368Z,99.90
2018-06-11T04:54:40.100Z,99.90
2018-06-11T04:57:07.865Z,99.90
2018-06-11T04:59:35.597Z,99.90
2018-06-11T05:02:03.747Z,99.90
2018-06-11T05:04:31.556Z,99.90
2018-06-11T05:06:59.337Z,99.90
2018-06-11T05:09:27.112Z,99.90
2018-06-11T05:11:54.901Z,99.90
2018-06-11T05:16:50.220Z,99.90
2018-06-11T05:19:17.976Z,99.90
2018-06-11T05:21:45.691Z,99.90
2018-06-11T05:24:13.453Z,99.90
2018-06-11T05:26:41.347Z,99.90
2018-06-11T05:29:09.109Z,99.90
2018-06-11T05:31:36.902Z,99.90
2018-06-11T05:36:32.337Z,99.90
2018-06-11T05:43:55.408Z,99.90
2018-06-11T05:46:23.213Z,99.90
2018-06-11T05:48:50.965Z,99.90
2018-06-11T05:51:18.730Z,99.90
2018-06-11T05:53:46.500Z,99.90
2018-06-11T05:56:14.315Z,99.60
2018-06-11T05:58:42.078Z,99.90
2018-06-11T06:01:09.870Z,99.90
2018-06-11T06:06:05.374Z,99.60
2018-06-11T06:08:33.220Z,99.10
2018-06-11T06:11:01.008Z,99.70
2018-06-11T06:13:28.798Z,98.20
2018-06-11T06:15:56.637Z,97.40
2018-06-11T06:18:24.356Z,98.50
2018-06-11T06:20:52.093Z,97.90
2018-06-11T06:23:19.863Z,98.00
2018-06-11T06:28:15.218Z,99.00
2018-06-11T06:30:43.024Z,97.90
2018-06-11T06:33:10.816Z,97.70
2018-06-11T06:35:38.628Z,97.60
2018-06-11T06:38:06.393Z,97.50
2018-06-11T06:40:34.249Z,96.10
2018-06-11T06:43:02.137Z,95.30
2018-06-11T06:45:29.930Z,94.60
2018-06-11T06:47:57.783Z,92.20
2018-06-11T06:50:25.605Z,93.10
2018-06-11T06:52:53.491Z,92.90
2018-06-11T06:55:21.289Z,92.00
2018-06-11T06:57:49.080Z,92.10
2018-06-11T07:00:16.897Z,90.80
2018-06-11T07:02:44.729Z,92.00
2018-06-11T07:05:12.528Z,91.60
2018-06-11T07:07:40.289Z,90.60
2018-06-11T07:10:08.053Z,90.10
2018-06-11T07:12:35.851Z,88.80
2018-06-11T07:15:03.894Z,87.90
2018-06-11T07:17:31.753Z,85.30
2018-06-11T07:19:59.582Z,86.80
2018-06-11T07:22:27.377Z,85.40
2018-06-11T07:24:55.282Z,82.80
2018-06-11T07:27:23.120Z,79.30
2018-06-11T07:29:50.952Z,77.60
2018-06-11T07:32:18.828Z,82.10
2018-06-11T07:34:46.684Z,83.30
2018-06-11T07:37:14.510Z,79.60
2018-06-11T07:39:42.284Z,78.80
2018-06-11T07:42:10.066Z,79.90
2018-06-11T07:44:37.803Z,80.50
2018-06-11T07:47:05.560Z,79.70
2018-06-11T07:49:33.307Z,75.20
2018-06-11T07:52:01.085Z,72.90
2018-06-11T07:54:28.856Z,72.90
2018-06-11T07:56:56.688Z,69.60
2018-06-11T07:59:24.464Z,68.50
2018-06-11T08:01:52.205Z,68.40
2018-06-11T08:04:19.994Z,68.50
2018-06-11T08:06:47.774Z,68.40
2018-06-11T08:09:15.523Z,67.30
2018-06-11T08:11:43.311Z,69.40
2018-06-11T08:14:11.120Z,65.50
2018-06-11T08:16:39.168Z,65.60
2018-06-11T08:19:06.928Z,66.80
2018-06-11T08:21:34.719Z,69.10
2018-06-11T08:24:02.524Z,67.30
2018-06-11T08:26:30.296Z,67.60
2018-06-11T08:28:58.113Z,66.50
2018-06-11T08:33:53.620Z,66.60
2018-06-11T08:36:21.432Z,67.70
2018-06-11T08:38:49.267Z,68.50
2018-06-11T08:41:17.206Z,69.10
2018-06-11T08:43:44.996Z,71.10
2018-06-11T08:46:12.855Z,72.10
2018-06-11T08:48:40.777Z,71.80
2018-06-11T08:51:08.671Z,73.40
2018-06-11T08:53:36.460Z,72.80
2018-06-11T08:56:04.268Z,71.30
2018-06-11T08:58:32.009Z,70.90
2018-06-11T09:00:59.775Z,68.60
2018-06-11T09:05:55.212Z,68.00
2018-06-11T09:08:22.992Z,67.10
2018-06-11T09:10:50.803Z,64.80
2018-06-11T09:13:19.511Z,62.10
2018-06-11T09:15:47.240Z,60.60
2018-06-11T09:18:15.261Z,58.10
2018-06-11T09:20:42.883Z,56.30
2018-06-11T09:23:10.674Z,51.60
2018-06-11T09:25:38.440Z,56.50
2018-06-11T09:28:06.204Z,55.10
2018-06-11T09:30:33.984Z,56.10
2018-06-11T09:35:29.392Z,54.50
2018-06-11T09:40:24.867Z,49.80
2018-06-11T09:42:52.723Z,47.80
2018-06-11T09:45:20.571Z,50.40
2018-06-11T09:47:49.140Z,45.80
2018-06-11T09:50:17.047Z,44.40
2018-06-11T09:52:44.919Z,47.20
2018-06-11T09:55:12.756Z,49.30
2018-06-11T09:57:40.559Z,50.30
2018-06-11T10:00:12.951Z,50.90
2018-06-11T10:02:40.852Z,50.70
2018-06-11T10:05:08.705Z,50.20
2018-06-11T10:07:36.497Z,46.40
2018-06-11T10:12:32.057Z,39.60
2018-06-11T10:17:27.455Z,36.90
2018-06-11T10:24:50.597Z,32.00
2018-06-11T10:27:18.402Z,34.60
2018-06-11T10:29:46.281Z,33.60
2018-06-11T10:32:14.276Z,34.70
2018-06-11T10:34:42.034Z,33.60
2018-06-11T10:37:13.492Z,34.90
2018-06-11T10:39:41.308Z,35.10
2018-06-11T10:42:09.163Z,35.20
2018-06-11T10:44:37.052Z,35.50
2018-06-11T10:47:04.876Z,34.40
2018-06-11T10:49:32.717Z,34.70
2018-06-11T10:52:00.476Z,33.90
2018-06-11T10:54:28.340Z,34.80
2018-06-11T10:56:56.100Z,34.10
2018-06-11T10:59:23.916Z,35.40
2018-06-11T11:01:51.720Z,34.50
2018-06-11T11:04:19.522Z,34.60
2018-06-11T11:06:47.437Z,35.20
2018-06-11T11:09:15.229Z,34.90
2018-06-11T11:11:43.001Z,33.10
2018-06-11T11:14:10.835Z,33.40
2018-06-11T11:19:06.361Z,34.70
2018-06-11T11:21:34.140Z,34.40
2018-06-11T11:24:02.059Z,35.50
2018-06-11T11:26:29.854Z,34.30
2018-06-11T11:31:25.410Z,31.80
2018-06-11T11:33:53.196Z,30.40
2018-06-11T11:36:20.997Z,30.80
2018-06-11T11:38:48.826Z,29.00
2018-06-11T11:41:16.665Z,30.50
2018-06-11T11:43:44.602Z,30.40
2018-06-11T11:46:12.381Z,29.80
2018-06-11T11:48:40.220Z,29.90
2018-06-11T11:51:08.167Z,30.10
2018-06-11T11:53:35.948Z,29.00
2018-06-11T11:56:03.768Z,30.80
2018-06-11T11:58:31.623Z,31.90
2018-06-11T12:00:59.439Z,30.70
2018-06-11T12:03:27.319Z,29.50
2018-06-11T12:05:55.116Z,30.10
2018-06-11T12:10:50.669Z,29.50
2018-06-11T12:15:46.073Z,27.40
2018-06-11T12:18:13.861Z,26.60
2018-06-11T12:20:41.625Z,26.60
2018-06-11T12:23:09.451Z,26.40
2018-06-11T12:25:37.265Z,27.10
2018-06-11T12:28:05.100Z,28.20
2018-06-11T12:33:00.585Z,31.10
2018-06-11T12:35:28.402Z,30.10
2018-06-11T12:37:56.164Z,30.00
2018-06-11T12:42:51.734Z,32.40
2018-06-11T12:45:19.543Z,32.30
2018-06-11T12:50:15.144Z,31.70
2018-06-11T12:52:42.992Z,29.70
2018-06-11T12:55:10.808Z,31.00
2018-06-11T12:57:38.595Z,29.70
2018-06-11T13:02:34.098Z,29.90
2018-06-11T13:05:01.882Z,31.70
2018-06-11T13:19:48.060Z,34.40
2018-06-11T13:24:43.473Z,34.20
2018-06-11T13:27:11.248Z,32.20
2018-06-11T13:29:39.001Z,33.80
2018-06-11T13:32:06.821Z,34.20
2018-06-11T13:34:34.539Z,36.00
2018-06-11T13:39:30.066Z,35.70
2018-06-11T13:41:57.830Z,38.00
2018-06-11T13:44:25.627Z,38.20
2018-06-11T13:46:53.399Z,36.40
2018-06-11T13:49:21.199Z,35.90
2018-06-11T13:51:49.004Z,37.70
2018-06-11T13:54:16.795Z,37.50
2018-06-11T13:56:44.588Z,36.70
2018-06-11T13:59:12.327Z,37.20
2018-06-11T14:01:40.182Z,38.20
2018-06-11T14:04:07.959Z,37.20
2018-06-11T14:06:35.751Z,39.00
2018-06-11T14:09:05.864Z,40.00
2018-06-11T14:11:33.661Z,41.10
2018-06-11T14:14:01.399Z,40.00
2018-06-11T14:16:29.176Z,40.10
2018-06-11T14:18:56.931Z,41.20
2018-06-11T14:21:24.696Z,41.10
2018-06-11T14:23:52.423Z,40.60
2018-06-11T14:31:15.486Z,41.60
2018-06-11T14:33:43.256Z,42.90
2018-06-11T14:36:11.040Z,42.40
2018-06-11T14:41:06.725Z,43.50
2018-06-11T14:43:34.787Z,44.30
2018-06-11T14:46:02.576Z,43.60
2018-06-11T14:48:30.308Z,43.60
2018-06-11T14:50:58.082Z,44.20
2018-06-11T14:53:25.808Z,45.00
2018-06-11T14:55:53.511Z,44.80
2018-06-11T14:58:21.292Z,46.20
2018-06-11T15:00:49.040Z,46.50
2018-06-11T15:03:16.804Z,48.40
2018-06-11T15:05:44.714Z,49.70
2018-06-11T15:10:40.249Z,47.30
2018-06-11T15:13:09.929Z,48.90
2018-06-11T15:15:37.825Z,50.20
2018-06-11T15:18:05.659Z,50.10
2018-06-11T15:20:33.472Z,49.00
2018-06-11T15:23:01.315Z,47.40
2018-06-11T15:27:56.811Z,48.00
2018-06-11T15:30:24.683Z,48.00
2018-06-11T15:32:52.513Z,47.80
2018-06-11T15:35:20.408Z,46.40
2018-06-11T15:37:48.308Z,45.80
2018-06-11T15:47:39.646Z,45.50
2018-06-11T15:50:07.553Z,45.00
2018-06-11T15:52:35.429Z,44.30
2018-06-11T15:55:03.212Z,45.20
2018-06-11T15:57:31.084Z,44.20
2018-06-11T16:02:27.945Z,44.10
2018-06-11T16:04:55.910Z,44.40
2018-06-11T16:07:23.784Z,44.40
2018-06-11T16:09:52.623Z,45.80
2018-06-11T16:12:26.081Z,43.80
2018-06-11T16:14:54.138Z,44.80
2018-06-11T16:19:49.700Z,45.80
2018-06-11T16:22:17.527Z,43.70
2018-06-11T16:24:45.401Z,44.80
2018-06-11T16:27:13.707Z,44.90
2018-06-11T16:29:42.380Z,44.40
2018-06-11T16:32:22.257Z,42.10
2018-06-11T16:35:09.184Z,43.20
2018-06-11T16:37:48.753Z,43.10
2018-06-11T16:40:27.487Z,43.50
2018-06-11T16:43:03.027Z,42.60
2018-06-11T16:45:38.722Z,41.40
2018-06-11T16:48:09.173Z,41.00
2018-06-11T16:53:14.915Z,40.50
2018-06-11T16:55:48.746Z,40.60
2018-06-11T16:58:24.909Z,40.30
2018-06-11T17:00:56.445Z,40.20
2018-06-11T17:03:34.593Z,41.40
2018-06-11T17:08:47.831Z,41.50
2018-06-11T17:11:23.976Z,40.70
2018-06-11T17:13:56.131Z,41.60
2018-06-11T17:16:36.088Z,41.00
2018-06-11T17:19:09.396Z,41.10
2018-06-11T17:21:41.013Z,41.30
2018-06-11T17:24:19.013Z,41.00
2018-06-11T17:32:03.894Z,43.70
2018-06-11T17:34:42.547Z,43.40
2018-06-11T17:39:53.350Z,43.50
2018-06-11T17:42:28.230Z,42.90
2018-06-11T17:45:03.838Z,44.00
2018-06-11T17:47:40.827Z,44.40
2018-06-11T17:50:22.657Z,43.40
2018-06-11T17:53:02.196Z,43.30
2018-06-11T17:55:36.092Z,43.70
2018-06-11T17:58:09.049Z,44.50
2018-06-11T18:00:40.644Z,45.20
2018-06-11T18:03:16.397Z,45.80
2018-06-11T18:05:51.637Z,44.50
2018-06-11T18:08:29.468Z,46.00
2018-06-11T18:11:02.018Z,45.60
2018-06-11T18:13:37.421Z,46.60
2018-06-11T18:16:19.251Z,46.50
2018-06-11T18:18:58.649Z,47.90
2018-06-11T18:21:30.967Z,47.30
2018-06-11T18:24:07.047Z,46.80
2018-06-11T18:26:47.130Z,48.00
2018-06-11T18:29:21.386Z,47.50
2018-06-11T18:31:54.272Z,48.00
2018-06-11T18:34:27.032Z,49.00
2018-06-11T18:39:37.696Z,49.50
2018-06-11T18:42:13.196Z,49.50
2018-06-11T18:44:46.146Z,49.90
2018-06-11T18:47:21.394Z,49.40
2018-06-11T18:49:56.665Z,51.50
2018-06-11T18:52:30.270Z,51.30
2018-06-11T18:55:03.657Z,51.70
2018-06-11T18:57:43.785Z,51.20
2018-06-11T19:00:22.065Z,52.20
2018-06-11T19:03:07.820Z,52.60
2018-06-11T19:05:47.616Z,52.40
2018-06-11T19:08:33.291Z,53.00
2018-06-11T19:11:06.030Z,52.70
2018-06-11T19:13:40.252Z,52.60
2018-06-11T19:16:29.413Z,53.20
2018-06-11T19:19:05.592Z,53.10
2018-06-11T19:21:39.082Z,53.60
2018-06-11T19:24:19.230Z,55.80
2018-06-11T19:26:53.451Z,55.90
2018-06-11T19:29:33.194Z,55.30
2018-06-11T19:32:11.681Z,57.40
2018-06-11T19:34:50.014Z,58.20
2018-06-11T19:39:58.075Z,62.70
2018-06-11T19:42:40.043Z,64.20
2018-06-11T19:47:47.101Z,65.40
2018-06-11T19:50:29.255Z,65.60
2018-06-11T19:53:06.819Z,67.30
2018-06-11T19:55:39.545Z,68.20
2018-06-11T19:58:20.504Z,67.20
2018-06-11T20:00:54.818Z,68.10
2018-06-11T20:03:32.930Z,70.20
2018-06-11T20:06:11.947Z,70.20
2018-06-11T20:08:48.131Z,69.30
2018-06-11T20:11:26.127Z,68.60
2018-06-11T20:14:00.513Z,68.70
2018-06-11T20:16:39.056Z,68.60
2018-06-11T20:19:12.529Z,69.00
2018-06-11T20:21:52.824Z,68.10
2018-06-11T20:24:32.490Z,67.70
2018-06-11T20:27:05.704Z,68.30
2018-06-11T20:29:44.370Z,67.40
2018-06-11T20:32:26.609Z,67.70
2018-06-11T20:35:07.459Z,67.50
2018-06-11T20:37:41.996Z,68.40
2018-06-11T20:40:16.699Z,67.90
2018-06-11T20:42:51.724Z,68.00
2018-06-11T20:45:28.716Z,68.40
2018-06-11T20:48:02.113Z,68.80
2018-06-11T20:50:34.963Z,69.10
2018-06-11T20:53:20.185Z,68.90
2018-06-11T20:55:57.473Z,69.10
2018-06-11T20:58:56.046Z,69.50
2018-06-11T21:02:37.849Z,68.60
2018-06-11T21:08:15.871Z,70.00
2018-06-11T21:13:48.269Z,74.40
2018-06-11T21:16:23.097Z,72.10
2018-06-11T21:19:05.623Z,73.80
2018-06-11T21:21:43.901Z,75.80
2018-06-11T21:27:48.488Z,77.20
2018-06-11T21:30:27.209Z,76.80
2018-06-11T21:33:02.148Z,77.60
2018-06-11T21:35:48.631Z,78.70
2018-06-11T21:46:23.416Z,80.10
2018-06-11T21:49:11.544Z,82.20
2018-06-11T21:57:20.016Z,91.20
2018-06-11T22:00:03.454Z,92.40
2018-06-11T22:02:41.046Z,95.70
2018-06-11T22:05:18.240Z,99.00
2018-06-11T22:08:06.793Z,99.90
2018-06-11T22:10:45.721Z,99.90
2018-06-11T22:13:24.230Z,99.90
2018-06-11T22:16:02.027Z,99.90
2018-06-11T22:18:35.731Z,99.90
2018-06-11T22:21:11.586Z,99.90
2018-06-11T22:24:04.355Z,99.90
2018-06-11T22:30:51.146Z,99.90
2018-06-11T22:33:33.942Z,99.90
2018-06-11T22:39:02.945Z,99.90
2018-06-11T22:41:37.331Z,99.90
2018-06-11T22:44:18.961Z,99.90
2018-06-11T22:46:56.618Z,99.90
2018-06-11T22:49:32.801Z,99.90
2018-06-11T22:52:19.694Z,99.90
2018-06-11T22:55:02.520Z,99.90
2018-06-11T22:57:40.926Z,99.90
2018-06-11T23:00:57.761Z,99.90
2018-06-11T23:03:48.150Z,99.90
2018-06-11T23:06:26.873Z,99.90
2018-06-11T23:09:08.667Z,99.90
2018-06-11T23:11:45.032Z,99.90
2018-06-11T23:14:24.684Z,99.90
2018-06-11T23:17:00.328Z,99.90
2018-06-11T23:19:44.992Z,99.90
2018-06-11T23:22:22.175Z,99.90
2018-06-11T23:24:58.427Z,99.90
2018-06-11T23:27:35.627Z,99.90
2018-06-11T23:30:12.204Z,99.90
2018-06-11T23:32:55.026Z,99.90
2018-06-11T23:35:58.214Z,99.90
2018-06-11T23:38:40.179Z,99.90
2018-06-11T23:44:12.147Z,99.90
2018-06-11T23:46:53.260Z,99.90
2018-06-11T23:49:38.861Z,99.90
